createdAt,value
2022-11-20T00:00:23.167Z,18.83
2022-11-20T00:02:50.531Z,20.85
2022-11-20T00:05:17.935Z,19.40
2022-11-20T00:07:45.423Z,19.58
2022-11-20T00:10:12.859Z,19.65
2022-11-20T00:12:40.242Z,20.10
2022-11-20T00:15:09.939Z,20.30
2022-11-20T00:17:37.347Z,20.48
2022-11-20T00:20:05.898Z,19.10
2022-11-20T00:22:33.274Z,20.30
2022-11-20T00:25:00.621Z,21.17
2022-11-20T00:27:27.967Z,19.73
2022-11-20T00:29:55.472Z,20.67
2022-11-20T00:32:24.185Z,19.60
2022-11-20T00:34:51.562Z,20.27
2022-11-20T00:37:18.926Z,20.70
2022-11-20T00:39:46.297Z,19.70
2022-11-20T00:42:13.704Z,20.42
2022-11-20T00:44:41.087Z,20.30
2022-11-20T00:47:08.448Z,19.33
2022-11-20T00:49:37.186Z,19.17
2022-11-20T00:52:04.551Z,20.30
2022-11-20T00:54:31.907Z,20.92
2022-11-20T00:56:59.263Z,20.42
2022-11-20T00:59:26.655Z,21.67
2022-11-20T01:01:54.011Z,23.42
2022-11-20T01:04:21.443Z,24.42
2022-11-20T01:06:50.142Z,24.48
2022-11-20T01:09:17.512Z,23.30
2022-11-20T01:11:45.468Z,23.13
2022-11-20T01:14:15.460Z,23.88
2022-11-20T01:16:43.941Z,23.35
2022-11-20T01:19:17.360Z,24.25
2022-11-20T01:21:46.038Z,23.98
2022-11-20T01:24:16.247Z,23.92
2022-11-20T01:26:44.411Z,22.35
2022-11-20T01:29:14.438Z,22.60
2022-11-20T01:31:41.844Z,20.60
2022-11-20T01:34:10.961Z,21.40
2022-11-20T01:36:39.007Z,22.38
2022-11-20T01:39:07.427Z,21.67
2022-11-20T01:41:53.754Z,21.90
2022-11-20T01:44:23.573Z,20.90
2022-11-20T01:46:54.763Z,21.40
2022-11-20T01:49:23.825Z,22.08
2022-11-20T01:51:52.611Z,22.42
2022-11-20T01:54:21.841Z,22.08
2022-11-20T01:56:52.626Z,21.63
2022-11-20T01:59:20.819Z,21.80
2022-11-20T02:01:48.695Z,19.88
2022-11-20T02:06:45.667Z,22.00
2022-11-20T02:09:13.253Z,20.35
2022-11-20T02:11:40.652Z,21.77
2022-11-20T02:14:08.772Z,21.88
2022-11-20T02:16:37.553Z,20.85
2022-11-20T02:19:06.435Z,21.25
2022-11-20T02:21:36.906Z,20.80
2022-11-20T02:24:10.104Z,21.10
2022-11-20T02:26:41.222Z,21.58
2022-11-20T02:29:08.584Z,21.35
2022-11-20T02:31:37.481Z,20.67
2022-11-20T02:34:04.867Z,20.10
2022-11-20T02:36:33.743Z,20.23
2022-11-20T02:39:01.134Z,22.80
2022-11-20T02:41:33.934Z,21.00
2022-11-20T02:44:01.337Z,22.35
2022-11-20T02:46:28.730Z,21.17
2022-11-20T02:48:56.166Z,20.50
2022-11-20T02:51:24.101Z,21.55
2022-11-20T02:53:51.752Z,20.35
2022-11-20T02:56:19.118Z,21.23
2022-11-20T02:58:47.802Z,20.38
2022-11-20T03:01:15.259Z,20.30
2022-11-20T03:03:42.695Z,20.60
2022-11-20T03:06:10.230Z,20.67
2022-11-20T03:08:37.698Z,20.67
2022-11-20T03:11:06.187Z,21.85
2022-11-20T03:13:33.613Z,20.33
2022-11-20T03:16:07.450Z,21.60
2022-11-20T03:18:34.900Z,20.17
2022-11-20T03:21:02.350Z,20.65
2022-11-20T03:23:30.772Z,22.10
2022-11-20T03:25:58.171Z,20.23
2022-11-20T03:28:25.513Z,20.65
2022-11-20T03:30:52.874Z,21.05
2022-11-20T03:33:21.586Z,20.77
2022-11-20T03:35:48.950Z,21.48
2022-11-20T03:38:16.309Z,21.85
2022-11-20T03:40:43.677Z,20.92
2022-11-20T03:43:11.474Z,19.58
2022-11-20T03:48:06.552Z,20.35
2022-11-20T03:50:35.287Z,19.77
2022-11-20T03:53:02.659Z,19.90
2022-11-20T03:55:30.025Z,22.02
2022-11-20T03:57:57.463Z,20.52
2022-11-20T04:00:29.736Z,20.90
2022-11-20T04:02:59.459Z,20.67
2022-11-20T04:05:27.102Z,21.42
2022-11-20T04:07:55.890Z,21.17
2022-11-20T04:10:23.252Z,20.85
2022-11-20T04:12:50.610Z,22.02
2022-11-20T04:15:18.953Z,20.58
2022-11-20T04:17:46.360Z,21.30
2022-11-20T04:20:13.756Z,19.60
2022-11-20T04:22:41.128Z,21.35
2022-11-20T04:25:10.448Z,20.48
2022-11-20T04:27:37.842Z,20.33
2022-11-20T04:30:05.554Z,21.05
2022-11-20T04:35:00.222Z,21.30
2022-11-20T04:37:27.644Z,19.63
2022-11-20T04:39:55.122Z,20.50
2022-11-20T04:42:30.132Z,20.77
2022-11-20T04:44:57.814Z,21.80
2022-11-20T04:49:52.506Z,20.08
2022-11-20T04:52:20.019Z,19.52
2022-11-20T04:54:47.393Z,20.85
2022-11-20T04:57:15.451Z,22.58
2022-11-20T04:59:44.392Z,21.73
2022-11-20T05:02:12.189Z,20.90
2022-11-20T05:07:06.865Z,19.23
2022-11-20T05:09:34.384Z,19.85
2022-11-20T05:12:01.793Z,21.10
2022-11-20T05:14:29.169Z,21.77
2022-11-20T05:16:57.930Z,20.27
2022-11-20T05:19:25.297Z,21.20
2022-11-20T05:21:52.669Z,21.55
2022-11-20T05:24:20.139Z,20.80
2022-11-20T05:26:47.549Z,22.17
2022-11-20T05:29:15.036Z,21.88
2022-11-20T05:31:42.647Z,22.33
2022-11-20T05:39:06.116Z,21.35
2022-11-20T05:41:34.781Z,19.98
2022-11-20T05:44:02.202Z,20.92
2022-11-20T05:46:29.892Z,21.85
2022-11-20T05:48:58.145Z,21.02
2022-11-20T05:51:25.958Z,21.90
2022-11-20T05:56:22.649Z,21.42
2022-11-20T05:58:50.278Z,20.05
2022-11-20T06:01:18.555Z,20.35
2022-11-20T06:03:48.301Z,22.33
2022-11-20T06:06:15.903Z,20.40
2022-11-20T06:08:43.243Z,22.20
2022-11-20T06:11:12.718Z,22.23
2022-11-20T06:13:42.698Z,21.23
2022-11-20T06:16:10.478Z,22.83
2022-11-20T06:18:37.993Z,21.60
2022-11-20T06:21:06.626Z,20.63
2022-11-20T06:23:34.738Z,21.98
2022-11-20T06:26:03.566Z,22.92
2022-11-20T06:28:31.104Z,21.52
2022-11-20T06:30:59.971Z,19.73
2022-11-20T06:33:27.550Z,20.52
2022-11-20T06:36:00.430Z,22.73
2022-11-20T06:38:30.396Z,21.35
2022-11-20T06:40:57.968Z,21.42
2022-11-20T06:43:25.613Z,23.80
2022-11-20T06:48:21.715Z,20.38
2022-11-20T06:50:49.053Z,20.63
2022-11-20T06:53:16.449Z,21.65
2022-11-20T06:55:44.534Z,20.83
2022-11-20T06:58:11.960Z,21.17
2022-11-20T07:00:39.422Z,20.83
2022-11-20T07:03:07.223Z,21.98
2022-11-20T07:08:03.582Z,20.95
2022-11-20T07:10:30.948Z,20.20
2022-11-20T07:12:58.397Z,20.30
2022-11-20T07:15:26.791Z,20.05
2022-11-20T07:17:54.195Z,20.30
2022-11-20T07:20:21.741Z,21.02
2022-11-20T07:22:54.723Z,19.77
2022-11-20T07:25:23.483Z,22.23
2022-11-20T07:27:50.873Z,20.15
2022-11-20T07:30:18.562Z,21.00
2022-11-20T07:35:13.287Z,19.83
2022-11-20T07:37:40.723Z,21.23
2022-11-20T07:40:08.494Z,20.02
2022-11-20T07:42:37.181Z,20.42
2022-11-20T07:45:04.955Z,21.90
2022-11-20T07:49:59.547Z,21.35
2022-11-20T07:52:26.924Z,20.10
2022-11-20T07:54:54.269Z,21.98
2022-11-20T07:57:27.091Z,21.50
2022-11-20T07:59:57.199Z,22.45
2022-11-20T08:02:24.658Z,21.85
2022-11-20T08:04:52.066Z,21.67
2022-11-20T08:07:19.484Z,20.52
2022-11-20T08:09:46.951Z,22.50
2022-11-20T08:12:36.320Z,21.23
2022-11-20T08:15:11.314Z,22.05
2022-11-20T08:17:40.362Z,16.53
2022-11-20T08:20:08.160Z,21.75
2022-11-20T08:25:02.900Z,22.40
2022-11-20T08:27:30.414Z,24.33
2022-11-20T08:29:57.814Z,22.48
2022-11-20T08:32:26.597Z,21.30
2022-11-20T08:34:53.982Z,23.58
2022-11-20T08:37:21.378Z,22.27
2022-11-20T08:39:48.766Z,21.75
2022-11-20T08:42:16.157Z,21.48
2022-11-20T08:44:44.011Z,23.38
2022-11-20T08:47:11.435Z,22.70
2022-11-20T08:49:40.163Z,24.65
2022-11-20T08:52:07.546Z,24.88
2022-11-20T08:54:34.918Z,27.42
2022-11-20T08:57:02.273Z,26.67
2022-11-20T09:00:03.884Z,25.38
2022-11-20T09:02:17.264Z,26.75
2022-11-20T09:04:46.004Z,27.75
2022-11-20T09:07:13.425Z,27.70
2022-11-20T09:09:40.886Z,26.95
2022-11-20T09:12:08.282Z,28.83
2022-11-20T09:14:35.669Z,27.50
2022-11-20T09:17:03.035Z,28.15
2022-11-20T09:19:37.486Z,27.92
2022-11-20T09:22:06.291Z,29.10
2022-11-20T09:24:33.774Z,28.95
2022-11-20T09:27:03.159Z,25.67
2022-11-20T09:29:30.602Z,29.60
2022-11-20T09:31:58.021Z,30.10
2022-11-20T09:34:25.549Z,30.95
2022-11-20T09:36:52.902Z,29.08
2022-11-20T09:39:21.793Z,29.70
2022-11-20T09:42:04.562Z,29.50
2022-11-20T09:44:51.092Z,29.98
2022-11-20T09:47:23.914Z,29.70
2022-11-20T09:50:00.090Z,31.83
2022-11-20T09:52:34.284Z,30.48
2022-11-20T09:55:04.466Z,29.85
2022-11-20T09:57:35.594Z,28.23
2022-11-20T10:00:05.553Z,29.05
2022-11-20T10:02:42.897Z,28.55
2022-11-20T10:05:13.318Z,27.38
2022-11-20T10:07:43.465Z,28.02
2022-11-20T10:10:17.010Z,28.85
2022-11-20T10:12:51.916Z,27.92
2022-11-20T10:15:29.748Z,28.58
2022-11-20T10:18:03.604Z,26.92
2022-11-20T10:20:35.106Z,28.77
2022-11-20T10:23:08.116Z,25.83
2022-11-20T10:25:39.826Z,26.73
2022-11-20T10:28:25.689Z,25.40
2022-11-20T10:30:57.187Z,26.35
2022-11-20T10:33:27.118Z,28.55
2022-11-20T10:35:57.430Z,25.48
2022-11-20T10:38:27.948Z,26.50
2022-11-20T10:41:19.481Z,28.85
2022-11-20T10:43:48.107Z,19.05
2022-11-20T10:46:17.620Z,20.95
2022-11-20T10:48:45.845Z,21.30
2022-11-20T10:51:17.812Z,23.60
2022-11-20T10:54:00.527Z,22.80
2022-11-20T10:56:33.286Z,22.55
2022-11-20T10:59:18.576Z,21.17
2022-11-20T11:01:46.088Z,18.42
2022-11-20T11:04:20.851Z,17.83
2022-11-20T11:06:49.923Z,18.80
2022-11-20T11:09:18.886Z,23.17
2022-11-20T11:11:47.679Z,23.38
2022-11-20T11:14:15.777Z,22.85
2022-11-20T11:16:50.947Z,21.40
2022-11-20T11:19:18.376Z,20.80
2022-11-20T11:21:52.348Z,21.45
2022-11-20T11:24:41.605Z,20.77
2022-11-20T11:27:17.174Z,17.27
2022-11-20T11:29:45.440Z,16.63
2022-11-20T11:32:14.216Z,16.17
2022-11-20T11:34:41.585Z,17.77
2022-11-20T11:37:15.018Z,19.15
2022-11-20T11:39:44.000Z,17.15
2022-11-20T11:42:15.063Z,15.15
2022-11-20T11:45:03.302Z,15.23
2022-11-20T11:47:32.800Z,14.02
2022-11-20T11:50:04.840Z,19.38
2022-11-20T11:52:33.137Z,14.82
2022-11-20T11:55:04.877Z,14.93
2022-11-20T11:57:43.360Z,13.87
2022-11-20T12:00:11.671Z,13.38
2022-11-20T12:02:40.999Z,13.68
2022-11-20T12:05:12.659Z,12.88
2022-11-20T12:07:47.059Z,13.68
2022-11-20T12:10:17.699Z,15.15
2022-11-20T12:12:47.687Z,16.15
2022-11-20T12:15:17.933Z,13.00
2022-11-20T12:17:45.318Z,14.13
2022-11-20T12:20:14.924Z,14.70
2022-11-20T12:22:46.750Z,15.02
2022-11-20T12:25:16.127Z,15.82
2022-11-20T12:27:53.319Z,15.32
2022-11-20T12:30:21.476Z,14.23
2022-11-20T12:33:01.498Z,14.00
2022-11-20T12:35:34.212Z,13.45
2022-11-20T12:38:10.535Z,14.73
2022-11-20T12:40:41.923Z,14.60
2022-11-20T12:43:32.149Z,14.05
2022-11-20T12:46:14.879Z,13.80
2022-11-20T12:48:57.366Z,13.60
2022-11-20T12:51:42.448Z,13.13
2022-11-20T12:54:21.771Z,11.85
2022-11-20T12:56:52.017Z,14.05
2022-11-20T12:59:28.782Z,15.07
2022-11-20T13:01:58.055Z,15.50
2022-11-20T13:04:33.208Z,14.70
2022-11-20T13:07:01.184Z,13.63
2022-11-20T13:09:29.446Z,16.92
2022-11-20T13:12:04.776Z,13.25
2022-11-20T13:14:36.611Z,13.80
2022-11-20T13:17:09.908Z,14.13
2022-11-20T13:19:37.543Z,15.30
2022-11-20T13:22:04.973Z,16.02
2022-11-20T13:24:32.793Z,15.98
2022-11-20T13:27:21.822Z,16.33
2022-11-20T13:30:01.413Z,16.42
2022-11-20T13:32:32.852Z,16.77
2022-11-20T13:35:01.186Z,17.08
2022-11-20T13:37:30.052Z,16.88
2022-11-20T13:40:14.496Z,16.08
2022-11-20T13:42:45.532Z,16.23
2022-11-20T13:45:24.318Z,17.33
2022-11-20T13:47:52.423Z,16.95
2022-11-20T13:50:20.091Z,16.98
2022-11-20T13:52:53.429Z,17.23
2022-11-20T13:55:24.781Z,18.05
2022-11-20T13:58:14.962Z,15.95
2022-11-20T14:00:47.258Z,17.33
2022-11-20T14:03:19.118Z,15.80
2022-11-20T14:05:52.049Z,17.52
2022-11-20T14:08:25.200Z,16.55
2022-11-20T14:10:52.618Z,16.73
2022-11-20T14:13:20.852Z,18.90
2022-11-20T14:15:49.591Z,16.92
2022-11-20T14:18:20.871Z,17.48
2022-11-20T14:20:48.604Z,16.70
2022-11-20T14:23:29.481Z,16.90
2022-11-20T14:25:57.557Z,16.35
2022-11-20T14:28:27.058Z,17.20
2022-11-20T14:30:56.100Z,17.02
2022-11-20T14:33:25.806Z,18.13
2022-11-20T14:35:54.141Z,20.33
2022-11-20T14:38:23.514Z,18.17
2022-11-20T14:40:50.976Z,17.90
2022-11-20T14:43:20.033Z,18.92
2022-11-20T14:45:57.385Z,18.70
2022-11-20T14:48:30.474Z,18.55
2022-11-20T14:50:57.914Z,19.92
2022-11-20T14:53:25.921Z,20.35
2022-11-20T14:55:59.030Z,19.75
2022-11-20T14:58:27.762Z,19.60
2022-11-20T15:00:56.165Z,20.50
2022-11-20T15:03:29.192Z,18.55
2022-11-20T15:06:00.545Z,19.25
2022-11-20T15:08:27.934Z,19.75
2022-11-20T15:10:55.792Z,19.23
2022-11-20T15:15:51.193Z,20.30
2022-11-20T15:20:45.980Z,20.05
2022-11-20T15:23:16.768Z,20.27
2022-11-20T15:25:44.535Z,20.55
2022-11-20T15:28:15.832Z,19.67
2022-11-20T15:30:43.225Z,21.33
2022-11-20T15:33:11.510Z,20.25
2022-11-20T15:35:38.937Z,19.60
2022-11-20T15:38:06.511Z,19.67
2022-11-20T15:40:35.468Z,19.98
2022-11-20T15:43:11.597Z,21.67
2022-11-20T15:48:11.189Z,20.80
2022-11-20T15:50:39.636Z,21.80
2022-11-20T15:53:07.033Z,23.13
2022-11-20T15:55:35.777Z,22.45
2022-11-20T15:58:03.237Z,23.15
2022-11-20T16:00:30.663Z,25.70
2022-11-20T16:02:58.235Z,22.83
2022-11-20T16:05:25.795Z,21.50
2022-11-20T16:07:53.459Z,24.23
2022-11-20T16:10:20.815Z,23.77
2022-11-20T16:13:07.287Z,23.92
2022-11-20T16:15:46.808Z,24.10
2022-11-20T16:18:14.933Z,24.63
2022-11-20T16:20:42.415Z,27.00
2022-11-20T16:23:10.033Z,24.38
2022-11-20T16:25:37.775Z,23.05
2022-11-20T16:28:06.965Z,24.35
2022-11-20T16:30:34.745Z,23.70
2022-11-20T16:33:02.278Z,23.52
2022-11-20T16:35:30.065Z,24.23
2022-11-20T16:37:57.728Z,24.27
2022-11-20T16:40:25.647Z,24.33
2022-11-20T16:45:26.964Z,24.77
2022-11-20T16:47:56.293Z,26.30
2022-11-20T16:50:23.658Z,27.35
2022-11-20T16:52:51.061Z,27.67
2022-11-20T16:55:18.401Z,26.23
2022-11-20T16:57:45.845Z,26.75
2022-11-20T17:00:13.743Z,27.60
2022-11-20T17:05:10.215Z,27.65
2022-11-20T17:07:39.117Z,29.33
2022-11-20T17:10:06.967Z,27.85
2022-11-20T17:12:34.295Z,28.10
2022-11-20T17:15:01.686Z,29.25
2022-11-20T17:17:29.410Z,28.13
2022-11-20T17:19:56.828Z,30.02
2022-11-20T17:22:25.563Z,32.53
2022-11-20T17:24:52.962Z,33.33
2022-11-20T17:27:20.348Z,30.30
2022-11-20T17:29:47.752Z,30.98
2022-11-20T17:32:15.346Z,30.52
2022-11-20T17:34:42.759Z,29.92
2022-11-20T17:37:10.117Z,31.38
2022-11-20T17:39:39.770Z,30.27
2022-11-20T17:42:24.702Z,31.55
2022-11-20T17:44:52.077Z,29.60
2022-11-20T17:47:19.472Z,29.50
2022-11-20T17:49:46.985Z,31.92
2022-11-20T17:52:14.391Z,29.75
2022-11-20T17:54:43.150Z,31.23
2022-11-20T17:57:28.372Z,31.38
2022-11-20T17:59:55.734Z,31.45
2022-11-20T18:02:23.090Z,31.50
2022-11-20T18:04:50.976Z,31.42
2022-11-20T18:09:46.976Z,32.30
2022-11-20T18:12:14.374Z,31.73
2022-11-20T18:14:43.469Z,31.60
2022-11-20T18:17:11.783Z,30.02
2022-11-20T18:19:44.829Z,30.00
2022-11-20T18:22:15.746Z,30.98
2022-11-20T18:24:43.203Z,32.60
2022-11-20T18:27:16.155Z,32.15
2022-11-20T18:29:43.944Z,33.60
2022-11-20T18:32:11.327Z,32.38
2022-11-20T18:34:38.722Z,32.65
2022-11-20T18:37:06.116Z,32.15
2022-11-20T18:39:33.653Z,32.17
2022-11-20T18:42:18.609Z,32.65
2022-11-20T18:44:53.787Z,30.98
2022-11-20T18:47:22.979Z,33.42
2022-11-20T18:49:52.451Z,35.53
2022-11-20T18:52:21.086Z,34.85
2022-11-20T18:54:48.581Z,34.38
2022-11-20T18:57:17.671Z,34.22
2022-11-20T18:59:45.595Z,35.13
2022-11-20T19:04:41.998Z,32.40
2022-11-20T19:07:12.125Z,35.72
2022-11-20T19:09:39.803Z,34.88
2022-11-20T19:12:07.695Z,33.95
2022-11-20T19:17:02.692Z,32.28
2022-11-20T19:21:58.798Z,31.00
2022-11-20T19:24:27.434Z,33.55
2022-11-20T19:26:55.975Z,34.70
2022-11-20T19:29:24.505Z,33.50
2022-11-20T19:31:52.277Z,32.60
2022-11-20T19:34:19.663Z,31.80
2022-11-20T19:36:47.099Z,33.05
2022-11-20T19:39:15.960Z,35.60
2022-11-20T19:41:43.431Z,36.05
2022-11-20T19:44:11.634Z,35.85
2022-11-20T19:46:39.373Z,33.97
2022-11-20T19:49:09.262Z,36.83
2022-11-20T19:51:37.053Z,34.08
2022-11-20T19:54:04.642Z,35.08
2022-11-20T19:56:33.940Z,33.60
2022-11-20T19:59:01.597Z,36.03
2022-11-20T20:01:29.835Z,30.60
2022-11-20T20:04:01.257Z,34.85
2022-11-20T20:06:29.231Z,31.15
2022-11-20T20:11:24.887Z,33.85
2022-11-20T20:13:54.665Z,31.33
2022-11-20T20:16:22.897Z,32.38
2022-11-20T20:18:50.330Z,33.10
2022-11-20T20:21:18.592Z,30.75
2022-11-20T20:23:47.579Z,32.70
2022-11-20T20:26:14.990Z,32.67
2022-11-20T20:28:42.356Z,33.15
2022-11-20T20:31:12.159Z,31.05
2022-11-20T20:33:39.902Z,35.17
2022-11-20T20:36:08.013Z,35.53
2022-11-20T20:38:35.361Z,99.05
2022-11-20T20:41:03.117Z,31.85
2022-11-20T20:43:31.421Z,32.45
2022-11-20T20:45:58.760Z,32.75
2022-11-20T20:48:27.574Z,32.55
2022-11-20T20:50:55.457Z,32.05
2022-11-20T20:55:56.846Z,29.05
2022-11-20T20:58:24.279Z,32.47
2022-11-20T21:00:51.691Z,29.52
2022-11-20T21:03:19.322Z,28.52
2022-11-20T21:05:48.347Z,29.38
2022-11-20T21:08:25.355Z,30.42
2022-11-20T21:10:53.479Z,31.90
2022-11-20T21:13:21.333Z,31.90
2022-11-20T21:18:17.101Z,27.83
2022-11-20T21:21:02.106Z,32.25
2022-11-20T21:23:31.043Z,34.88
2022-11-20T21:26:01.283Z,36.78
2022-11-20T21:28:28.660Z,39.60
2022-11-20T21:31:03.381Z,41.40
2022-11-20T21:33:36.021Z,42.22
2022-11-20T21:36:03.504Z,43.35
2022-11-20T21:38:32.301Z,39.38
2022-11-20T21:40:59.927Z,39.33
2022-11-20T21:43:27.335Z,34.05
2022-11-20T21:45:56.555Z,36.67
2022-11-20T21:48:23.993Z,31.52
2022-11-20T21:50:51.443Z,34.80
2022-11-20T21:53:18.885Z,35.00
2022-11-20T21:55:55.349Z,33.38
2022-11-20T21:58:22.770Z,33.05
2022-11-20T22:00:50.180Z,32.67
2022-11-20T22:03:17.621Z,34.88
2022-11-20T22:05:45.156Z,26.60
2022-11-20T22:08:12.576Z,27.38
2022-11-20T22:10:39.902Z,31.48
2022-11-20T22:13:28.485Z,28.15
2022-11-20T22:16:01.761Z,28.10
2022-11-20T22:18:29.206Z,29.30
2022-11-20T22:20:56.624Z,27.73
2022-11-20T22:23:23.996Z,25.17
2022-11-20T22:25:51.381Z,24.55
2022-11-20T22:28:20.150Z,24.95
2022-11-20T22:30:47.585Z,27.40
2022-11-20T22:33:14.957Z,26.00
2022-11-20T22:35:42.318Z,25.80
2022-11-20T22:38:09.667Z,27.73
2022-11-20T22:40:37.030Z,25.60
2022-11-20T22:43:04.413Z,25.55
2022-11-20T22:45:33.205Z,25.73
2022-11-20T22:48:00.589Z,25.95
2022-11-20T22:50:27.961Z,26.30
2022-11-20T22:52:55.313Z,27.08
2022-11-20T22:55:22.759Z,26.92
2022-11-20T22:57:50.186Z,28.27
2022-11-20T23:00:18.175Z,26.25
2022-11-20T23:02:47.457Z,27.98
2022-11-20T23:05:14.945Z,23.73
2022-11-20T23:07:43.812Z,23.63
2022-11-20T23:10:11.307Z,22.08
2022-11-20T23:12:38.730Z,24.67
2022-11-20T23:15:06.666Z,25.60
2022-11-20T23:22:32.227Z,21.10
2022-11-20T23:24:59.615Z,23.02
2022-11-20T23:27:28.397Z,24.48
2022-11-20T23:29:56.471Z,25.70
2022-11-20T23:34:51.295Z,23.67
2022-11-20T23:37:18.696Z,22.70
2022-11-20T23:39:47.438Z,24.80
2022-11-20T23:42:14.804Z,21.88
2022-11-20T23:44:42.155Z,24.50
2022-11-20T23:47:09.514Z,23.88
2022-11-20T23:49:36.877Z,23.35
2022-11-20T23:52:04.369Z,21.90
2022-11-20T23:54:31.760Z,24.20
2022-11-20T23:57:00.439Z,24.10
2022-11-20T23:59:27.823Z,22.67
